Time;durP1;ratioP1;P1;durP2;ratioP2;P2;SDS_P1;SDS_P2;PMS_P1;PMS_P2;Temp;Humidity;BMP_temperature;BMP_pressure;BME280_temperature;BME280_humidity;BME280_pressure;Samples;Min_cycle;Max_cycle;Signal;HPM_P1;HPM_P2
2023/11/11 00:00:48;;;;;;;5.87;1.90;;;8.00;1.00;;;;;;5082154;28;20293;-77
2023/11/11 00:03:16;;;;;;;8.17;1.50;;;8.00;1.00;;;;;;5075127;28;20219;-78
2023/11/11 00:05:43;;;;;;;4.37;2.23;;;7.90;1.00;;;;;;5075473;28;20245;-79
2023/11/11 00:08:10;;;;;;;7.93;1.93;;;7.90;1.00;;;;;;5075056;28;20202;-78
2023/11/11 00:10:37;;;;;;;11.23;2.43;;;7.90;1.00;;;;;;5083023;28;20583;-77
2023/11/11 00:13:08;;;;;;;4.37;1.53;;;7.80;1.00;;;;;;5077825;28;20202;-78
2023/11/11 00:15:35;;;;;;;4.70;1.90;;;7.80;1.00;;;;;;5074807;28;20233;-79
2023/11/11 00:18:02;;;;;;;3.43;1.43;;;7.80;8.00;;;;;;5074200;28;20199;-79
2023/11/11 00:20:29;;;;;;;5.57;1.70;;;7.70;99.90;;;;;;5085284;28;20198;-79
2023/11/11 00:22:56;;;;;;;3.43;1.50;;;7.80;99.90;;;;;;5077218;28;20230;-79
2023/11/11 00:25:23;;;;;;;6.17;1.90;;;7.90;23.40;;;;;;5077460;28;20210;-79
2023/11/11 00:27:51;;;;;;;4.87;1.80;;;8.00;1.00;;;;;;5077458;28;20202;-79
2023/11/11 00:30:20;;;;;;;3.20;1.50;;;8.10;1.00;;;;;;5069822;28;20202;-78
2023/11/11 00:32:50;;;;;;;3.67;1.97;;;8.00;1.00;;;;;;5081607;28;20221;-80
2023/11/11 00:35:18;;;;;;;7.33;1.60;;;8.00;99.90;;;;;;5078842;28;20198;-77
2023/11/11 00:37:46;;;;;;;6.73;1.93;;;8.10;99.90;;;;;;5074402;28;20205;-79
2023/11/11 00:40:13;;;;;;;3.87;1.73;;;8.10;99.90;;;;;;5076704;28;20202;-78
2023/11/11 00:42:40;;;;;;;4.40;1.53;;;8.00;99.90;;;;;;5086485;28;20230;-79
2023/11/11 00:45:08;;;;;;;7.50;1.87;;;7.90;99.90;;;;;;5086716;28;20233;-77
2023/11/11 00:47:36;;;;;;;3.33;1.83;;;7.90;99.90;;;;;;5085386;28;20231;-78
2023/11/11 00:50:05;;;;;;;4.77;1.60;;;7.90;1.00;;;;;;5079089;28;20728;-77
2023/11/11 00:52:33;;;;;;;9.07;1.63;;;7.90;1.00;;;;;;5073639;28;20343;-78
2023/11/11 00:55:00;;;;;;;3.93;1.80;;;7.80;1.00;;;;;;5086912;28;20206;-79
2023/11/11 00:57:27;;;;;;;3.10;1.83;;;7.90;1.00;;;;;;5086855;28;20225;-78
2023/11/11 00:59:54;;;;;;;5.67;1.67;;;7.80;1.00;;;;;;5085315;28;20202;-78
2023/11/11 01:02:21;;;;;;;4.17;2.03;;;7.80;1.00;;;;;;5076997;28;20226;-79
2023/11/11 01:04:49;;;;;;;6.03;1.87;;;7.80;1.00;;;;;;5084721;28;20860;-79
2023/11/11 01:07:16;;;;;;;10.90;2.27;;;7.80;1.00;;;;;;5074806;28;20242;-79
2023/11/11 01:09:42;;;;;;;5.60;1.90;;;7.70;1.00;;;;;;5085641;28;20216;-78
2023/11/11 01:12:10;;;;;;;5.10;1.90;;;7.70;1.00;;;;;;5077842;28;20713;-79
2023/11/11 01:14:37;;;;;;;3.80;1.70;;;7.60;99.90;;;;;;5079794;28;20207;-79
2023/11/11 01:17:04;;;;;;;6.93;2.47;;;7.50;1.00;;;;;;5077495;28;20253;-80
2023/11/11 01:19:31;;;;;;;5.70;2.00;;;7.40;1.00;;;;;;5086115;28;20294;-80
2023/11/11 01:21:59;;;;;;;4.53;1.83;;;7.40;1.00;;;;;;5085469;28;20634;-77
2023/11/11 01:24:29;;;;;;;4.30;3.13;;;7.30;1.00;;;;;;5075904;28;20281;-77
2023/11/11 01:26:56;;;;;;;4.00;1.73;;;7.30;1.00;;;;;;5076571;28;20243;-78
2023/11/11 01:29:22;;;;;;;5.00;2.03;;;7.30;98.10;;;;;;5072788;28;20293;-78
2023/11/11 01:31:49;;;;;;;3.77;2.40;;;7.30;55.20;;;;;;5083085;28;20237;-79
2023/11/11 01:34:16;;;;;;;4.93;2.30;;;7.40;1.00;;;;;;5083287;28;20225;-78
2023/11/11 01:36:43;;;;;;;5.53;2.33;;;7.40;1.00;;;;;;5081416;28;20265;-78
2023/11/11 01:39:11;;;;;;;5.33;2.17;;;7.30;1.00;;;;;;5083630;28;20261;-76
2023/11/11 01:41:38;;;;;;;5.07;1.83;;;7.30;1.00;;;;;;5072929;28;20274;-78
2023/11/11 01:44:05;;;;;;;3.97;1.93;;;7.10;1.00;;;;;;5080796;28;20221;-79
2023/11/11 01:46:32;;;;;;;3.17;1.77;;;7.10;99.90;;;;;;5073433;28;20223;-78
2023/11/11 01:49:00;;;;;;;4.87;2.10;;;7.00;99.90;;;;;;5079717;28;20229;-78
2023/11/11 01:51:28;;;;;;;4.53;2.00;;;7.00;99.90;;;;;;5074471;28;20572;-78
2023/11/11 01:53:55;;;;;;;3.07;1.93;;;6.90;1.00;;;;;;5079632;28;20218;-79
2023/11/11 01:56:25;;;;;;;4.63;1.90;;;6.80;1.00;;;;;;5076907;28;20298;-79
2023/11/11 01:58:52;;;;;;;5.07;2.20;;;6.80;99.90;;;;;;5075649;28;20404;-77
2023/11/11 02:01:19;;;;;;;3.80;1.90;;;6.80;99.90;;;;;;5083888;28;20645;-78
2023/11/11 02:03:46;;;;;;;3.47;2.17;;;7.00;99.90;;;;;;5084431;28;20224;-79
2023/11/11 02:06:13;;;;;;;4.67;2.50;;;6.90;99.90;;;;;;5081926;28;20625;-78
2023/11/11 02:08:40;;;;;;;5.37;1.93;;;6.90;1.00;;;;;;5078357;28;20545;-77
2023/11/11 02:11:08;;;;;;;7.13;1.70;;;6.90;79.30;;;;;;5082293;28;20221;-78
2023/11/11 02:13:37;;;;;;;4.57;2.10;;;6.90;1.00;;;;;;5084967;28;20203;-77
2023/11/11 02:16:05;;;;;;;4.50;2.03;;;6.90;15.00;;;;;;5079762;28;20689;-78
2023/11/11 02:18:32;;;;;;;7.83;2.30;;;6.90;1.00;;;;;;5081692;28;20228;-78
2023/11/11 02:20:59;;;;;;;4.10;1.93;;;6.90;99.90;;;;;;5081629;28;20194;-78
2023/11/11 02:23:34;;;;;;;4.57;1.90;;;6.90;99.90;;;;;;5076029;28;20316;-77
2023/11/11 02:26:01;;;;;;;6.53;2.07;;;6.90;99.90;;;;;;5084804;28;20229;-77
2023/11/11 02:28:28;;;;;;;4.50;1.90;;;7.10;1.00;;;;;;5083107;28;20654;-77
2023/11/11 02:30:55;;;;;;;3.53;1.60;;;7.30;1.00;;;;;;5074770;28;20206;-79
2023/11/11 02:33:22;;;;;;;3.40;1.97;;;7.10;1.00;;;;;;5084236;28;20241;-79
2023/11/11 02:35:49;;;;;;;5.40;2.33;;;7.20;12.40;;;;;;5075806;28;20732;-78
2023/11/11 02:38:16;;;;;;;4.80;1.73;;;7.20;1.00;;;;;;5075255;28;20202;-77
2023/11/11 02:40:44;;;;;;;6.87;1.90;;;7.20;1.00;;;;;;5075429;28;20283;-79
2023/11/11 02:43:11;;;;;;;3.63;1.80;;;7.20;1.00;;;;;;5080134;28;20214;-79
2023/11/11 02:45:38;;;;;;;2.30;1.57;;;7.20;1.00;;;;;;5083674;28;20272;-78
2023/11/11 02:48:06;;;;;;;4.73;1.70;;;7.20;1.00;;;;;;5080100;28;20749;-79
2023/11/11 02:50:33;;;;;;;2.63;1.70;;;7.20;1.00;;;;;;5077917;28;20195;-78
2023/11/11 02:52:59;;;;;;;6.43;1.87;;;7.20;1.00;;;;;;5071750;28;20225;-79
2023/11/11 02:55:27;;;;;;;3.77;1.80;;;7.20;1.00;;;;;;5075938;28;20569;-77
2023/11/11 02:57:55;;;;;;;5.20;1.73;;;7.30;1.00;;;;;;5080729;28;20298;-80
2023/11/11 03:00:22;;;;;;;5.77;1.90;;;7.40;1.00;;;;;;5074211;28;20202;-80
2023/11/11 03:02:49;;;;;;;4.17;1.60;;;7.30;1.00;;;;;;5078387;28;20229;-78
2023/11/11 03:05:16;;;;;;;9.47;2.70;;;7.40;1.00;;;;;;5075849;28;20275;-77
2023/11/11 03:07:43;;;;;;;6.30;1.97;;;7.40;1.00;;;;;;5084299;28;20210;-77
2023/11/11 03:10:12;;;;;;;3.53;1.67;;;7.50;1.00;;;;;;5075209;28;20199;-77
2023/11/11 03:12:39;;;;;;;7.40;1.90;;;7.50;1.00;;;;;;5073019;28;20245;-80
2023/11/11 03:15:08;;;;;;;6.60;1.80;;;7.50;1.00;;;;;;5072849;28;20241;-80
2023/11/11 03:17:36;;;;;;;2.57;1.30;;;7.50;1.00;;;;;;5083400;28;20720;-78
2023/11/11 03:20:04;;;;;;;4.07;1.50;;;7.50;1.00;;;;;;5078644;28;20724;-76
2023/11/11 03:22:31;;;;;;;5.07;1.47;;;7.50;1.00;;;;;;5076755;28;20294;-79
2023/11/11 03:24:59;;;;;;;2.90;1.53;;;7.60;1.00;;;;;;5082887;28;20285;-78
2023/11/11 03:27:25;;;;;;;3.63;1.50;;;7.50;99.90;;;;;;5079921;28;20260;-78
2023/11/11 03:29:52;;;;;;;4.70;1.63;;;7.50;99.90;;;;;;5074936;28;20202;-77
2023/11/11 03:32:20;;;;;;;7.17;1.60;;;7.50;99.90;;;;;;5083482;28;20285;-80
2023/11/11 03:34:47;;;;;;;2.80;1.47;;;7.50;1.00;;;;;;5076229;28;21541;-80
2023/11/11 03:37:14;;;;;;;2.93;1.47;;;7.60;1.00;;;;;;5082258;28;20565;-77
2023/11/11 03:39:43;;;;;;;3.07;1.37;;;7.60;99.90;;;;;;5083539;28;20209;-80
2023/11/11 03:42:11;;;;;;;3.77;1.40;;;7.60;99.90;;;;;;5082133;28;20202;-78
2023/11/11 03:44:38;;;;;;;4.70;1.90;;;7.70;99.90;;;;;;5083429;28;20222;-80
2023/11/11 03:47:06;;;;;;;6.53;1.63;;;7.70;99.90;;;;;;5083021;28;20693;-78
2023/11/11 03:49:34;;;;;;;3.87;1.57;;;7.60;1.00;;;;;;5079318;28;20206;-79
2023/11/11 03:52:01;;;;;;;5.40;1.80;;;7.60;1.00;;;;;;5069121;28;20282;-77
2023/11/11 03:54:28;;;;;;;4.17;1.50;;;7.60;1.00;;;;;;5076291;28;20210;-77
2023/11/11 03:56:55;;;;;;;7.10;2.00;;;7.50;1.00;;;;;;5083573;28;20591;-79
2023/11/11 03:59:21;;;;;;;4.13;1.57;;;7.50;1.00;;;;;;5083847;28;20206;-79
2023/11/11 04:01:49;;;;;;;4.37;1.70;;;7.50;1.00;;;;;;5076118;28;20207;-78
2023/11/11 04:04:15;;;;;;;6.67;1.87;;;7.60;1.00;;;;;;5079433;28;20257;-78
2023/11/11 04:06:44;;;;;;;2.43;1.80;;;7.60;99.90;;;;;;5077764;28;20224;-79
2023/11/11 04:09:12;;;;;;;5.23;2.30;;;7.50;94.10;;;;;;5082800;28;20641;-78
2023/11/11 04:11:40;;;;;;;2.20;1.37;;;7.50;99.90;;;;;;5081978;28;20274;-78
2023/11/11 04:14:07;;;;;;;6.40;1.80;;;7.50;1.00;;;;;;5082769;28;20241;-78
2023/11/11 04:16:35;;;;;;;3.47;1.70;;;7.50;1.00;;;;;;5083619;28;20291;-78
2023/11/11 04:19:01;;;;;;;2.20;1.50;;;7.50;1.00;;;;;;5083888;28;20229;-78
2023/11/11 04:21:28;;;;;;;4.90;2.10;;;7.40;1.00;;;;;;5083015;28;20696;-80
2023/11/11 04:23:56;;;;;;;5.53;2.43;;;7.40;99.90;;;;;;5079041;28;20301;-80
2023/11/11 04:26:23;;;;;;;3.37;1.90;;;7.40;99.90;;;;;;5069366;28;20218;-79
2023/11/11 04:28:50;;;;;;;6.13;2.20;;;7.50;99.90;;;;;;5075849;28;20666;-79
2023/11/11 04:31:17;;;;;;;4.10;1.90;;;7.50;99.90;;;;;;5073585;28;20223;-79
2023/11/11 04:33:44;;;;;;;5.63;2.50;;;7.40;99.90;;;;;;5074514;28;20198;-79
2023/11/11 04:36:11;;;;;;;4.27;2.47;;;7.40;99.90;;;;;;5082304;28;20229;-77
2023/11/11 04:38:38;;;;;;;5.17;2.30;;;7.40;99.90;;;;;;5078417;28;20289;-78
2023/11/11 04:41:06;;;;;;;3.97;2.40;;;7.40;99.90;;;;;;5074869;28;20213;-78
2023/11/11 04:43:34;;;;;;;5.17;2.33;;;7.40;99.90;;;;;;5067094;28;20222;-79
2023/11/11 04:46:01;;;;;;;5.13;2.17;;;7.40;99.90;;;;;;5082052;28;20313;-80
2023/11/11 04:48:28;;;;;;;6.13;2.53;;;7.30;99.90;;;;;;5078135;28;20207;-80
2023/11/11 04:50:55;;;;;;;4.67;2.20;;;7.40;99.90;;;;;;5063971;28;20728;-79
2023/11/11 04:53:22;;;;;;;3.03;2.03;;;7.30;99.90;;;;;;5073189;28;20211;-79
2023/11/11 04:55:49;;;;;;;4.43;2.00;;;7.40;99.90;;;;;;5073566;28;20317;-78
2023/11/11 04:58:17;;;;;;;6.27;2.10;;;7.40;99.90;;;;;;5077117;28;20566;-79
2023/11/11 05:00:45;;;;;;;3.07;1.70;;;7.40;99.90;;;;;;5082108;28;20212;-77
2023/11/11 05:03:12;;;;;;;4.77;1.20;;;7.40;99.90;;;;;;5083107;28;20198;-80
2023/11/11 05:05:39;;;;;;;2.47;1.40;;;7.20;99.90;;;;;;5074614;28;20225;-78
2023/11/11 05:08:06;;;;;;;2.63;1.37;;;7.10;99.90;;;;;;5081286;28;20198;-81
2023/11/11 05:10:33;;;;;;;0.97;0.97;;;6.90;99.90;;;;;;5068287;28;20822;-77
2023/11/11 05:13:01;;;;;;;3.03;0.90;;;6.90;99.90;;;;;;5081995;28;20218;-80
2023/11/11 05:15:30;;;;;;;1.37;1.10;;;6.80;1.00;;;;;;5079566;28;20207;-79
2023/11/11 05:17:57;;;;;;;1.00;0.70;;;6.80;20.10;;;;;;5068121;28;20281;-81
2023/11/11 05:20:24;;;;;;;1.13;0.70;;;6.60;1.00;;;;;;5068214;28;20202;-78
2023/11/11 05:22:51;;;;;;;2.93;0.90;;;6.60;1.00;;;;;;5083500;28;20306;-82
2023/11/11 05:25:18;;;;;;;1.80;0.53;;;6.50;1.00;;;;;;5080640;28;20229;-80
2023/11/11 05:27:46;;;;;;;0.60;0.60;;;6.50;1.00;;;;;;5069910;28;20681;-79
2023/11/11 05:30:13;;;;;;;0.60;0.60;;;6.40;1.00;;;;;;5083167;28;20206;-80
2023/11/11 05:32:41;;;;;;;0.80;0.40;;;6.40;1.00;;;;;;5084227;28;20230;-81
2023/11/11 05:35:09;;;;;;;1.37;0.40;;;6.40;1.00;;;;;;5085325;28;20650;-79
2023/11/11 05:37:36;;;;;;;2.30;0.50;;;6.30;1.00;;;;;;5085435;28;20286;-78
2023/11/11 05:40:07;;;;;;;0.50;0.30;;;6.30;99.90;;;;;;5078167;28;20708;-75
2023/11/11 05:42:34;;;;;;;0.73;0.60;;;6.40;23.40;;;;;;5085524;28;20198;-78
2023/11/11 05:45:01;;;;;;;1.33;0.63;;;6.40;99.90;;;;;;5083134;28;20222;-78
2023/11/11 05:47:28;;;;;;;0.70;0.47;;;6.50;99.90;;;;;;5068762;28;20741;-78
2023/11/11 05:49:56;;;;;;;0.83;0.30;;;6.40;99.90;;;;;;5076254;28;20210;-78
2023/11/11 05:52:23;;;;;;;0.30;0.20;;;6.40;1.00;;;;;;5075673;28;20697;-78
2023/11/11 05:54:50;;;;;;;1.13;0.60;;;6.40;1.00;;;;;;5078879;28;20278;-79
2023/11/11 05:57:17;;;;;;;0.30;0.30;;;6.50;99.90;;;;;;5066966;28;20603;-80
2023/11/11 05:59:44;;;;;;;0.57;0.47;;;6.60;1.00;;;;;;5085246;28;20700;-80
2023/11/11 06:02:10;;;;;;;1.33;0.30;;;6.50;1.00;;;;;;5074826;28;20215;-80
2023/11/11 06:04:37;;;;;;;1.20;0.30;;;6.50;1.00;;;;;;5065152;28;20700;-78
2023/11/11 06:07:06;;;;;;;0.30;0.30;;;6.40;1.00;;;;;;5083817;28;20587;-77
2023/11/11 06:09:35;;;;;;;0.60;0.40;;;6.50;1.00;;;;;;5078611;28;20207;-79
2023/11/11 06:12:02;;;;;;;0.20;0.20;;;6.50;1.00;;;;;;5072990;28;20218;-77
2023/11/11 06:14:29;;;;;;;0.67;0.20;;;6.50;1.00;;;;;;5073320;28;20244;-81
2023/11/11 06:16:56;;;;;;;0.60;0.40;;;6.50;99.90;;;;;;5063845;28;20737;-76
2023/11/11 06:19:25;;;;;;;0.47;0.33;;;6.50;99.90;;;;;;5075490;28;20206;-81
2023/11/11 06:21:52;;;;;;;0.33;0.30;;;6.50;99.90;;;;;;5076013;28;20229;-80
2023/11/11 06:24:20;;;;;;;1.77;1.23;;;6.50;1.00;;;;;;5083635;28;20229;-80
2023/11/11 06:26:48;;;;;;;3.73;0.77;;;6.50;1.00;;;;;;5085065;28;20238;-79
2023/11/11 06:29:15;;;;;;;1.13;0.40;;;6.50;1.00;;;;;;5079886;28;20242;-79
2023/11/11 06:31:43;;;;;;;0.47;0.43;;;6.50;1.00;;;;;;5068912;28;20739;-79
2023/11/11 06:34:10;;;;;;;1.50;0.30;;;6.40;1.00;;;;;;5083451;28;20544;-80
2023/11/11 06:36:37;;;;;;;0.27;0.27;;;6.40;99.90;;;;;;5082070;28;20222;-79
2023/11/11 06:39:04;;;;;;;0.47;0.30;;;6.50;99.90;;;;;;5083202;28;20320;-79
2023/11/11 06:41:32;;;;;;;0.40;0.40;;;6.40;99.90;;;;;;5076639;28;20207;-78
2023/11/11 06:43:59;;;;;;;0.90;0.63;;;6.30;99.90;;;;;;5077910;28;20298;-79
2023/11/11 06:46:26;;;;;;;1.20;0.40;;;6.40;99.90;;;;;;5081567;28;20288;-80
2023/11/11 06:48:53;;;;;;;1.83;0.50;;;6.40;99.90;;;;;;5082732;28;20214;-77
2023/11/11 06:51:19;;;;;;;0.30;0.30;;;6.30;99.90;;;;;;5084558;28;20206;-77
2023/11/11 06:53:46;;;;;;;0.97;0.50;;;6.40;99.90;;;;;;5075070;28;20209;-77
2023/11/11 06:56:15;;;;;;;0.63;0.40;;;6.40;99.90;;;;;;5072723;28;20595;-79
2023/11/11 06:58:44;;;;;;;0.67;0.50;;;6.40;99.90;;;;;;5083191;28;20283;-78
2023/11/11 07:01:11;;;;;;;1.47;0.50;;;6.30;99.90;;;;;;5078577;28;20573;-78
2023/11/11 07:03:39;;;;;;;0.50;0.50;;;6.40;99.90;;;;;;5080119;28;20236;-78
2023/11/11 07:06:06;;;;;;;0.67;0.37;;;6.40;99.90;;;;;;5079096;28;20297;-78
2023/11/11 07:08:33;;;;;;;0.80;0.80;;;6.40;99.90;;;;;;5076743;28;20199;-78
2023/11/11 07:11:01;;;;;;;0.73;0.73;;;6.40;99.90;;;;;;5079417;28;20240;-79
2023/11/11 07:13:28;;;;;;;2.23;1.00;;;6.50;99.90;;;;;;5080379;28;20580;-79
2023/11/11 07:15:56;;;;;;;2.07;1.87;;;6.40;99.90;;;;;;5075433;28;20784;-79
2023/11/11 07:18:23;;;;;;;6.97;3.93;;;6.40;99.90;;;;;;5077087;28;20293;-83
2023/11/11 07:20:49;;;;;;;4.60;2.80;;;6.60;99.90;;;;;;5077127;28;20208;-82
2023/11/11 07:23:16;;;;;;;3.73;1.53;;;6.50;99.90;;;;;;5060779;28;20290;-81
2023/11/11 07:25:43;;;;;;;2.00;1.40;;;6.50;99.90;;;;;;5076377;28;20697;-82
2023/11/11 07:28:10;;;;;;;1.63;1.43;;;6.50;99.90;;;;;;5076270;28;20237;-83
2023/11/11 07:30:39;;;;;;;1.33;1.23;;;6.50;99.90;;;;;;5069389;28;20245;-82
2023/11/11 07:33:07;;;;;;;3.50;1.90;;;6.50;99.90;;;;;;5065452;28;20228;-81
2023/11/11 07:35:34;;;;;;;3.77;1.73;;;6.50;99.90;;;;;;5075779;28;20206;-82
2023/11/11 07:38:04;;;;;;;3.60;2.13;;;6.60;99.90;;;;;;5067054;28;20279;-81
2023/11/11 07:40:30;;;;;;;3.07;2.30;;;6.50;99.90;;;;;;5066762;28;20210;-84
2023/11/11 07:42:57;;;;;;;3.00;2.30;;;6.60;99.90;;;;;;5066918;28;20646;-80
2023/11/11 07:45:25;;;;;;;3.40;2.70;;;6.60;99.90;;;;;;5066803;28;20234;-84
2023/11/11 07:47:52;;;;;;;4.87;2.93;;;6.60;99.90;;;;;;5075454;28;20209;-81
2023/11/11 07:50:21;;;;;;;3.97;2.93;;;6.70;99.90;;;;;;5080781;28;20205;-81
2023/11/11 07:52:48;;;;;;;6.63;4.03;;;6.80;99.90;;;;;;5076997;28;20210;-80
2023/11/11 07:55:16;;;;;;;7.00;4.27;;;6.80;99.90;;;;;;5076264;28;20198;-82
2023/11/11 07:57:43;;;;;;;7.33;4.80;;;6.90;99.90;;;;;;5078150;28;20210;-82
2023/11/11 08:00:15;;;;;;;9.00;4.87;;;7.00;99.90;;;;;;5073725;28;20302;-80
2023/11/11 08:02:42;;;;;;;16.93;6.23;;;7.00;99.90;;;;;;5070907;28;20215;-82
2023/11/11 08:05:10;;;;;;;11.00;6.43;;;7.00;99.90;;;;;;5057680;28;20310;-86
2023/11/11 08:07:38;;;;;;;9.40;6.13;;;7.20;99.90;;;;;;5068469;28;20222;-81
2023/11/11 08:10:07;;;;;;;9.67;6.40;;;7.20;99.90;;;;;;5077721;28;20209;-83
2023/11/11 08:12:34;;;;;;;10.60;6.20;;;7.20;99.90;;;;;;5065071;28;20285;-81
2023/11/11 08:15:03;;;;;;;9.57;5.77;;;7.20;99.90;;;;;;5066083;28;20198;-80
2023/11/11 08:17:31;;;;;;;9.27;5.83;;;7.30;99.90;;;;;;5075691;28;20282;-82
2023/11/11 08:19:59;;;;;;;12.77;6.23;;;7.30;99.90;;;;;;5065764;28;20212;-83
2023/11/11 08:22:26;;;;;;;10.70;5.93;;;7.40;99.90;;;;;;5075638;28;20308;-85
2023/11/11 08:24:54;;;;;;;10.00;5.10;;;7.30;99.90;;;;;;5075827;28;20238;-81
2023/11/11 08:27:21;;;;;;;8.67;6.00;;;7.30;99.90;;;;;;5073993;28;20222;-81
2023/11/11 08:29:49;;;;;;;7.83;5.27;;;7.40;1.00;;;;;;5075193;28;20212;-84
2023/11/11 08:32:17;;;;;;;8.93;4.63;;;7.40;99.90;;;;;;5074314;28;20665;-80
2023/11/11 08:34:44;;;;;;;6.67;4.43;;;7.40;99.90;;;;;;5075486;28;20297;-85
2023/11/11 08:37:11;;;;;;;7.83;4.77;;;7.50;1.00;;;;;;5076349;28;20249;-83
2023/11/11 08:39:37;;;;;;;7.77;4.87;;;7.50;1.00;;;;;;5079319;28;20586;-81
2023/11/11 08:42:06;;;;;;;8.57;4.83;;;7.50;1.00;;;;;;5070447;28;20677;-83
2023/11/11 08:44:33;;;;;;;5.33;4.20;;;7.50;99.90;;;;;;5074564;28;20667;-80
2023/11/11 08:47:00;;;;;;;5.33;4.20;;;7.60;1.00;;;;;;5077543;28;20226;-83
2023/11/11 08:49:27;;;;;;;8.63;4.80;;;7.60;99.90;;;;;;5080467;28;20210;-82
2023/11/11 08:51:53;;;;;;;6.73;4.50;;;7.70;99.90;;;;;;5073041;28;20211;-83
2023/11/11 08:54:21;;;;;;;6.33;3.97;;;7.80;1.00;;;;;;5071493;28;20210;-82
2023/11/11 08:56:47;;;;;;;6.87;3.97;;;7.80;99.90;;;;;;5078081;28;20226;-82
2023/11/11 08:59:16;;;;;;;5.33;3.83;;;7.80;1.00;;;;;;5087038;28;20297;-83
2023/11/11 09:01:43;;;;;;;4.33;3.50;;;7.80;99.90;;;;;;5071394;28;20209;-85
2023/11/11 09:04:10;;;;;;;5.30;3.93;;;7.90;97.80;;;;;;5077295;28;20206;-84
2023/11/11 09:06:37;;;;;;;6.27;3.87;;;8.00;99.90;;;;;;5075665;28;20297;-85
2023/11/11 09:09:04;;;;;;;8.30;3.63;;;8.00;99.90;;;;;;5074069;28;20274;-83
2023/11/11 09:11:36;;;;;;;5.90;3.60;;;8.00;1.00;;;;;;5078529;28;20699;-84
2023/11/11 09:14:04;;;;;;;4.77;3.27;;;7.90;1.00;;;;;;5079525;28;20208;-84
2023/11/11 09:16:32;;;;;;;5.57;3.27;;;7.90;99.90;;;;;;5072677;28;20230;-83
2023/11/11 09:19:00;;;;;;;5.00;3.53;;;7.90;99.90;;;;;;5071588;28;20214;-85
2023/11/11 09:21:27;;;;;;;5.13;2.80;;;7.90;99.90;;;;;;5067375;28;20209;-84
2023/11/11 09:23:54;;;;;;;4.43;2.77;;;7.90;90.40;;;;;;5067581;28;20284;-84
2023/11/11 09:26:21;;;;;;;2.83;2.53;;;7.90;91.60;;;;;;5078073;28;20241;-84
2023/11/11 09:28:49;;;;;;;3.63;2.60;;;7.90;99.90;;;;;;5078439;28;20252;-83
2023/11/11 09:31:16;;;;;;;4.23;2.87;;;7.90;1.00;;;;;;5069003;28;20210;-83
2023/11/11 09:33:45;;;;;;;3.03;2.40;;;7.90;1.00;;;;;;5060011;28;20206;-82
2023/11/11 09:36:12;;;;;;;5.63;2.53;;;7.90;75.70;;;;;;5061703;28;20316;-83
2023/11/11 09:38:40;;;;;;;4.20;2.40;;;7.90;83.40;;;;;;5073791;28;20212;-83
2023/11/11 09:41:07;;;;;;;3.83;2.13;;;7.90;1.00;;;;;;5079524;28;20210;-83
2023/11/11 09:43:34;;;;;;;3.87;2.20;;;7.90;1.00;;;;;;5080104;28;20202;-83
2023/11/11 09:46:04;;;;;;;3.57;2.20;;;7.90;1.00;;;;;;5078950;28;20237;-85
2023/11/11 09:48:32;;;;;;;3.77;1.90;;;7.90;1.00;;;;;;5077404;28;20305;-86
2023/11/11 09:51:00;;;;;;;2.47;2.07;;;8.00;1.00;;;;;;5077583;28;20264;-85
2023/11/11 09:53:27;;;;;;;2.57;1.80;;;8.00;1.00;;;;;;5074123;28;20199;-84
2023/11/11 09:55:56;;;;;;;3.47;1.93;;;8.00;1.00;;;;;;5072771;28;20241;-83
2023/11/11 09:58:24;;;;;;;3.10;1.93;;;8.10;1.00;;;;;;5070592;28;20210;-84
2023/11/11 10:00:51;;;;;;;3.17;2.20;;;8.00;99.90;;;;;;5078700;28;20222;-84
2023/11/11 10:03:18;;;;;;;3.60;2.07;;;8.10;99.90;;;;;;5075741;28;20213;-86
2023/11/11 10:05:46;;;;;;;2.23;1.80;;;8.10;99.90;;;;;;5066446;28;20234;-83
2023/11/11 10:08:14;;;;;;;3.50;1.80;;;8.20;99.90;;;;;;5076274;28;20206;-83
2023/11/11 10:10:42;;;;;;;4.93;2.27;;;8.00;1.00;;;;;;5078021;28;20214;-83
2023/11/11 10:13:10;;;;;;;3.00;1.80;;;8.00;1.00;;;;;;5079121;28;20206;-84
2023/11/11 10:15:36;;;;;;;4.20;2.23;;;8.00;1.00;;;;;;5066447;28;20659;-84
2023/11/11 10:18:04;;;;;;;3.60;1.90;;;8.00;1.00;;;;;;5069724;28;20297;-85
2023/11/11 10:20:31;;;;;;;3.40;2.60;;;8.00;1.00;;;;;;5064569;28;20260;-83
2023/11/11 10:22:58;;;;;;;3.03;2.50;;;8.00;1.00;;;;;;5059126;28;20205;-84
2023/11/11 10:25:26;;;;;;;6.07;2.90;;;8.10;1.00;;;;;;5062253;28;20247;-83
2023/11/11 10:27:54;;;;;;;4.80;2.60;;;8.00;1.00;;;;;;5064895;28;20202;-83
2023/11/11 10:30:24;;;;;;;2.50;2.20;;;8.00;1.00;;;;;;5079304;28;20297;-84
2023/11/11 10:32:52;;;;;;;4.20;2.40;;;8.00;1.00;;;;;;5067956;28;20701;-83
2023/11/11 10:35:19;;;;;;;6.87;3.80;;;8.00;1.00;;;;;;5066489;28;20206;-84
2023/11/11 10:37:47;;;;;;;5.10;2.90;;;8.00;1.00;;;;;;5072844;28;20576;-84
2023/11/11 10:40:16;;;;;;;7.03;3.03;;;8.20;1.00;;;;;;5060399;28;20634;-84
2023/11/11 10:42:46;;;;;;;4.80;2.73;;;8.00;1.00;;;;;;5068779;28;20206;-83
2023/11/11 10:45:15;;;;;;;4.17;2.70;;;7.90;1.00;;;;;;5082334;28;20195;-83
2023/11/11 10:47:42;;;;;;;4.83;3.03;;;7.90;1.00;;;;;;5078590;28;20244;-84
2023/11/11 10:50:11;;;;;;;7.77;3.40;;;8.00;1.00;;;;;;5079985;28;20198;-83
2023/11/11 10:52:38;;;;;;;4.90;3.03;;;8.10;1.00;;;;;;5078094;28;20289;-84
2023/11/11 10:55:08;;;;;;;4.47;3.00;;;8.30;1.00;;;;;;5063786;28;20221;-83
2023/11/11 10:57:36;;;;;;;5.67;2.60;;;8.30;99.90;;;;;;5074259;28;20222;-83
2023/11/11 11:00:10;;;;;;;5.37;2.67;;;8.40;1.00;;;;;;5064660;28;20238;-84
2023/11/11 11:02:37;;;;;;;3.87;2.80;;;8.50;66.00;;;;;;5072785;28;20206;-83
2023/11/11 11:05:10;;;;;;;6.37;2.40;;;8.60;1.00;;;;;;5081745;28;20221;-83
2023/11/11 11:07:52;;;;;;;4.20;2.30;;;8.60;1.00;;;;;;5065098;28;20674;-82
2023/11/11 11:10:26;;;;;;;3.90;2.13;;;8.60;1.00;;;;;;5079376;28;20206;-82
2023/11/11 11:12:57;;;;;;;3.67;2.07;;;8.50;1.00;;;;;;5070239;28;20586;-82
2023/11/11 11:15:26;;;;;;;3.33;2.20;;;8.50;99.90;;;;;;5065078;28;20633;-84
2023/11/11 11:17:54;;;;;;;5.90;3.37;;;8.40;99.90;;;;;;5071665;28;20209;-84
2023/11/11 11:20:26;;;;;;;6.73;3.17;;;8.40;1.00;;;;;;5069246;28;20293;-83
2023/11/11 11:22:59;;;;;;;8.63;2.70;;;8.50;1.00;;;;;;5075841;28;20213;-83
2023/11/11 11:25:41;;;;;;;6.47;3.13;;;8.60;1.00;;;;;;5068604;28;20700;-83
2023/11/11 11:28:18;;;;;;;5.30;2.73;;;8.50;1.00;;;;;;5072441;28;20202;-83
2023/11/11 11:30:49;;;;;;;4.57;2.63;;;8.40;1.00;;;;;;5064548;28;20654;-83
2023/11/11 11:33:18;;;;;;;5.40;2.73;;;8.40;1.00;;;;;;5069027;28;20576;-84
2023/11/11 11:35:47;;;;;;;4.47;2.60;;;8.30;1.00;;;;;;5078915;28;20226;-85
2023/11/11 11:38:25;;;;;;;6.37;3.33;;;8.20;1.00;;;;;;5077912;28;20292;-84
2023/11/11 11:40:54;;;;;;;6.00;3.23;;;8.20;1.00;;;;;;5068211;28;20210;-82
2023/11/11 11:43:30;;;;;;;7.90;3.80;;;8.20;1.00;;;;;;5068767;28;20267;-84
2023/11/11 11:45:59;;;;;;;8.97;4.13;;;8.10;1.00;;;;;;5071415;28;20272;-82
2023/11/11 11:48:27;;;;;;;11.00;4.27;;;8.10;1.00;;;;;;5073119;28;20206;-85
2023/11/11 11:51:09;;;;;;;7.47;3.63;;;8.20;1.00;;;;;;5074916;28;20202;-84
2023/11/11 11:53:36;;;;;;;9.00;4.53;;;8.10;1.00;;;;;;5077156;28;20194;-84
2023/11/11 11:56:04;;;;;;;12.67;5.30;;;8.10;1.00;;;;;;5073903;28;20840;-85
2023/11/11 11:58:45;;;;;;;6.23;3.23;;;8.20;1.00;;;;;;5075283;28;20572;-84
2023/11/11 12:01:21;;;;;;;14.33;5.50;;;8.20;1.00;;;;;;5074930;28;20202;-85
2023/11/11 12:03:48;;;;;;;19.47;8.87;;;8.20;1.00;;;;;;5071027;28;20212;-83
2023/11/11 12:06:15;;;;;;;14.40;5.53;;;8.20;1.00;;;;;;5073159;28;20613;-81
2023/11/11 12:08:47;;;;;;;11.53;5.30;;;8.20;1.00;;;;;;5062619;28;20210;-84
2023/11/11 12:11:14;;;;;;;7.93;3.20;;;8.20;1.00;;;;;;5072404;28;20588;-85
2023/11/11 12:13:41;;;;;;;9.43;4.63;;;8.20;1.00;;;;;;5078215;28;20198;-83
2023/11/11 12:16:08;;;;;;;7.47;3.27;;;8.30;1.00;;;;;;5069055;28;20218;-84
2023/11/11 12:18:37;;;;;;;7.40;3.60;;;8.20;1.00;;;;;;5073063;28;20244;-83
2023/11/11 12:21:04;;;;;;;6.67;3.43;;;8.20;1.00;;;;;;5073382;28;20292;-83
2023/11/11 12:23:31;;;;;;;5.33;2.47;;;8.40;1.00;;;;;;5072227;28;20209;-83
2023/11/11 12:25:59;;;;;;;6.77;3.40;;;8.70;99.90;;;;;;5065163;28;20769;-82
2023/11/11 12:28:28;;;;;;;11.00;2.97;;;8.80;99.90;;;;;;5060521;28;20216;-85
2023/11/11 12:31:04;;;;;;;3.33;2.10;;;8.80;99.90;;;;;;5060500;28;20206;-86
2023/11/11 12:33:32;;;;;;;5.00;2.37;;;8.70;99.90;;;;;;5069447;28;20206;-84
2023/11/11 12:36:00;;;;;;;3.40;1.70;;;8.60;99.90;;;;;;5066428;28;20226;-85
2023/11/11 12:38:28;;;;;;;4.23;2.13;;;8.60;99.90;;;;;;5063239;28;20213;-83
2023/11/11 12:40:57;;;;;;;9.70;3.70;;;8.50;41.40;;;;;;5076642;28;20198;-84
2023/11/11 12:43:26;;;;;;;9.33;3.90;;;8.50;44.50;;;;;;5068442;28;20217;-84
2023/11/11 12:45:54;;;;;;;5.73;2.80;;;8.50;99.90;;;;;;5069928;28;20325;-84
2023/11/11 12:48:22;;;;;;;4.07;2.00;;;8.40;99.90;;;;;;5069111;28;20225;-83
2023/11/11 12:50:52;;;;;;;3.20;2.13;;;8.30;99.90;;;;;;5076749;28;20213;-84
2023/11/11 12:53:21;;;;;;;3.90;2.27;;;8.20;99.90;;;;;;5067112;28;20595;-83
2023/11/11 12:55:49;;;;;;;5.13;2.60;;;8.20;1.00;;;;;;5063223;28;20224;-83
2023/11/11 12:58:25;;;;;;;2.50;2.00;;;8.10;1.00;;;;;;5073981;28;20198;-81
2023/11/11 13:00:55;;;;;;;6.77;2.50;;;8.10;1.00;;;;;;5077277;28;20206;-82
2023/11/11 13:03:25;;;;;;;4.60;2.30;;;8.00;1.00;;;;;;5072470;28;20206;-82
2023/11/11 13:05:53;;;;;;;3.13;2.10;;;8.00;11.40;;;;;;5074335;28;20983;-83